createdAt,value
2023-01-30T00:01:21.471Z,100119.00
2023-01-30T00:03:49.647Z,100122.44
2023-01-30T00:06:17.591Z,100111.28
2023-01-30T00:08:46.083Z,100112.97
2023-01-30T00:11:15.832Z,100106.97
2023-01-30T00:13:44.022Z,100103.53
2023-01-30T00:16:12.154Z,100095.78
2023-01-30T00:18:41.678Z,100094.91
2023-01-30T00:21:11.292Z,100084.63
2023-01-30T00:23:40.028Z,100080.31
2023-01-30T00:26:09.688Z,100067.44
2023-01-30T00:28:39.835Z,100073.44
2023-01-30T00:31:08.388Z,100068.28
2023-01-30T00:33:38.663Z,100051.09
2023-01-30T00:36:07.052Z,100058.81
2023-01-30T00:38:35.049Z,100055.38
2023-01-30T00:41:03.326Z,100045.06
2023-01-30T00:43:49.836Z,100045.91
2023-01-30T00:46:50.911Z,100026.13
2023-01-30T00:49:19.663Z,100010.66
2023-01-30T00:51:47.706Z,100007.22
2023-01-30T00:54:15.591Z,100001.22
2023-01-30T00:56:43.300Z,99997.75
2023-01-30T00:59:11.253Z,99992.59
2023-01-30T01:01:39.033Z,99990.06
2023-01-30T01:04:10.344Z,99978.03
2023-01-30T01:06:38.702Z,99969.41
2023-01-30T01:09:07.373Z,99966.84
2023-01-30T01:11:35.064Z,99969.41
2023-01-30T01:14:05.101Z,99959.94
2023-01-30T01:16:33.785Z,99951.38
2023-01-30T01:19:02.447Z,99946.16
2023-01-30T01:21:30.459Z,99946.16
2023-01-30T01:24:00.848Z,99937.63
2023-01-30T01:26:28.763Z,99921.28
2023-01-30T01:28:58.332Z,99917.84
2023-01-30T01:31:26.766Z,99900.56
2023-01-30T01:33:57.389Z,99888.59
2023-01-30T01:36:52.287Z,99885.19
2023-01-30T01:39:14.702Z,99877.47
2023-01-30T01:41:42.893Z,99873.13
2023-01-30T01:44:17.211Z,99864.50
2023-01-30T01:46:58.257Z,99862.75
2023-01-30T01:49:33.736Z,99849.03
2023-01-30T01:52:15.397Z,99859.34
2023-01-30T01:54:49.032Z,99846.47
2023-01-30T01:57:25.231Z,99839.59
2023-01-30T02:00:16.880Z,99835.31
2023-01-30T02:02:58.077Z,99830.13
2023-01-30T02:05:31.360Z,99823.19
2023-01-30T02:08:04.996Z,99836.09
2023-01-30T02:10:56.999Z,99822.31
2023-01-30T02:13:25.203Z,99808.59
2023-01-30T02:15:58.157Z,99814.69
2023-01-30T02:18:26.276Z,99818.91
2023-01-30T02:21:31.700Z,99809.44
2023-01-30T02:24:20.639Z,99809.53
2023-01-30T02:27:07.782Z,99800.84
2023-01-30T02:29:38.382Z,99795.72
2023-01-30T02:32:09.309Z,99796.63
2023-01-30T02:34:56.007Z,99792.28
2023-01-30T02:37:43.972Z,99788.81
2023-01-30T02:40:36.666Z,99778.47
2023-01-30T02:43:24.958Z,99764.78
2023-01-30T02:46:08.918Z,99761.31
2023-01-30T02:48:42.413Z,99763.94
2023-01-30T02:51:30.470Z,99758.72
2023-01-30T02:54:00.186Z,99738.94
2023-01-30T02:56:28.024Z,99744.13
2023-01-30T02:59:02.398Z,99742.41
2023-01-30T03:01:44.482Z,99738.97
2023-01-30T03:04:42.188Z,99737.28
2023-01-30T03:07:34.886Z,99733.88
2023-01-30T03:10:08.819Z,99728.72
2023-01-30T03:12:53.915Z,99726.09
2023-01-30T03:15:34.314Z,99714.06
2023-01-30T03:18:03.473Z,99698.69
2023-01-30T03:20:36.610Z,99708.06
2023-01-30T03:23:04.257Z,99692.66
2023-01-30T03:25:33.695Z,99680.59
2023-01-30T03:28:04.946Z,99674.53
2023-01-30T03:30:33.204Z,99661.72
2023-01-30T03:33:07.733Z,99650.44
2023-01-30T03:35:37.607Z,99640.97
2023-01-30T03:38:06.169Z,99635.94
2023-01-30T03:40:34.327Z,99627.38
2023-01-30T03:43:02.074Z,99623.06
2023-01-30T03:45:30.250Z,99616.28
2023-01-30T03:47:57.990Z,99618.81
2023-01-30T03:50:25.913Z,99615.47
2023-01-30T03:52:54.087Z,99605.16
2023-01-30T03:55:23.249Z,99611.25
2023-01-30T03:57:58.856Z,99616.41
2023-01-30T04:00:30.473Z,99602.69
2023-01-30T04:02:59.039Z,99601.97
2023-01-30T04:05:27.576Z,99596.81
2023-01-30T04:08:02.333Z,99595.81
2023-01-30T04:10:30.266Z,99594.09
2023-01-30T04:12:58.299Z,99587.28
2023-01-30T04:15:26.287Z,99574.34
2023-01-30T04:18:14.269Z,99564.03
2023-01-30T04:20:56.740Z,99567.50
2023-01-30T04:23:31.648Z,99564.03
2023-01-30T04:25:59.638Z,99567.66
2023-01-30T04:28:28.340Z,99552.03
2023-01-30T04:30:56.454Z,99541.72
2023-01-30T04:33:43.264Z,99535.72
2023-01-30T04:36:13.118Z,99526.25
2023-01-30T04:38:41.955Z,99517.63
2023-01-30T04:41:09.999Z,99513.44
2023-01-30T04:43:41.269Z,99505.81
2023-01-30T04:46:12.073Z,99492.19
2023-01-30T04:48:40.858Z,99493.09
2023-01-30T04:51:08.879Z,99490.44
2023-01-30T04:53:38.688Z,99484.44
2023-01-30T04:56:07.310Z,99474.19
2023-01-30T04:58:35.643Z,99466.47
2023-01-30T05:01:21.513Z,99463.06
2023-01-30T05:03:53.426Z,99473.38
2023-01-30T05:06:22.915Z,99473.34
2023-01-30T05:08:52.442Z,99469.03
2023-01-30T05:11:21.666Z,99460.47
2023-01-30T05:13:49.574Z,99462.13
2023-01-30T05:16:18.900Z,99462.91
2023-01-30T05:18:47.046Z,99450.91
2023-01-30T05:21:18.286Z,99457.63
2023-01-30T05:23:46.334Z,99450.81
2023-01-30T05:26:15.448Z,99443.28
2023-01-30T05:28:43.365Z,99433.78
2023-01-30T05:31:13.876Z,99424.34
2023-01-30T05:33:42.090Z,99414.13
2023-01-30T05:36:15.457Z,99410.56
2023-01-30T05:38:44.420Z,99402.78
2023-01-30T05:41:14.396Z,99390.78
2023-01-30T05:43:42.301Z,99381.28
2023-01-30T05:46:12.769Z,99373.56
2023-01-30T05:48:40.900Z,99377.00
2023-01-30T05:51:17.967Z,99376.09
2023-01-30T05:53:45.635Z,99370.16
2023-01-30T05:56:13.673Z,99377.00
2023-01-30T05:58:41.659Z,99373.53
2023-01-30T06:01:12.860Z,99377.72
2023-01-30T06:03:40.828Z,99367.50
2023-01-30T06:06:11.489Z,99375.28
2023-01-30T06:08:39.782Z,99364.97
2023-01-30T06:11:10.579Z,99368.44
2023-01-30T06:13:38.757Z,99364.13
2023-01-30T06:16:08.613Z,99352.25
2023-01-30T06:18:36.678Z,99351.25
2023-01-30T06:21:05.181Z,99349.47
2023-01-30T06:23:33.012Z,99326.38
2023-01-30T06:26:03.508Z,99328.06
2023-01-30T06:28:32.979Z,99306.63
2023-01-30T06:31:01.008Z,99307.56
2023-01-30T06:33:29.077Z,99297.19
2023-01-30T06:35:57.167Z,99301.47
2023-01-30T06:38:26.152Z,99299.75
2023-01-30T06:40:54.242Z,99296.31
2023-01-30T06:43:21.884Z,99301.56
2023-01-30T06:45:49.880Z,99302.22
2023-01-30T06:48:17.599Z,99297.13
2023-01-30T06:50:48.028Z,99304.78
2023-01-30T06:53:15.783Z,99298.00
2023-01-30T06:55:43.655Z,99298.84
2023-01-30T06:58:13.634Z,99293.63
2023-01-30T07:00:43.448Z,99286.81
2023-01-30T07:03:13.604Z,99271.22
2023-01-30T07:05:43.101Z,99271.31
2023-01-30T07:08:11.429Z,99263.53
2023-01-30T07:10:40.717Z,99274.72
2023-01-30T07:13:08.670Z,99274.66
2023-01-30T07:15:36.973Z,99282.34
2023-01-30T07:18:04.943Z,99261.72
2023-01-30T07:20:33.358Z,99260.13
2023-01-30T07:23:01.295Z,99244.56
2023-01-30T07:25:29.799Z,99248.84
2023-01-30T07:28:02.398Z,99240.19
2023-01-30T07:30:33.216Z,99238.72
2023-01-30T07:33:02.460Z,99243.59
2023-01-30T07:35:33.546Z,99246.25
2023-01-30T07:38:01.324Z,99247.91
2023-01-30T07:40:29.434Z,99246.28
2023-01-30T07:43:02.514Z,99234.16
2023-01-30T07:45:50.773Z,99226.53
2023-01-30T07:48:20.035Z,99229.00
2023-01-30T07:50:48.273Z,99224.00
2023-01-30T07:53:21.045Z,99215.16
2023-01-30T07:55:49.021Z,99217.00
2023-01-30T07:58:17.279Z,99199.03
2023-01-30T08:00:45.547Z,99186.38
2023-01-30T08:03:17.410Z,99198.25
2023-01-30T08:05:48.664Z,99195.84
2023-01-30T08:08:16.972Z,99186.59
2023-01-30T08:10:45.126Z,99185.56
2023-01-30T08:13:14.823Z,99185.44
2023-01-30T08:15:42.803Z,99188.09
2023-01-30T08:18:10.673Z,99183.00
2023-01-30T08:20:38.717Z,99175.44
2023-01-30T08:23:06.466Z,99179.88
2023-01-30T08:25:35.537Z,99178.13
2023-01-30T08:28:03.835Z,99164.50
2023-01-30T08:30:31.870Z,99161.16
2023-01-30T08:32:59.686Z,99164.44
2023-01-30T08:35:27.757Z,99159.44
2023-01-30T08:37:55.823Z,99140.69
2023-01-30T08:40:23.791Z,99152.59
2023-01-30T08:42:51.428Z,99150.69
2023-01-30T08:45:19.463Z,99165.31
2023-01-30T08:47:47.455Z,99158.41
2023-01-30T08:50:15.636Z,99161.09
2023-01-30T08:52:43.456Z,99156.03
2023-01-30T08:55:11.834Z,99157.81
2023-01-30T08:57:39.687Z,99159.56
2023-01-30T09:00:09.074Z,99153.66
2023-01-30T09:02:37.010Z,99132.97
2023-01-30T09:05:06.531Z,99140.56
2023-01-30T09:07:34.465Z,99135.59
2023-01-30T09:10:02.505Z,99120.84
2023-01-30T09:12:30.124Z,99121.97
2023-01-30T09:14:58.543Z,99114.19
2023-01-30T09:17:26.295Z,99107.19
2023-01-30T09:19:54.795Z,99103.00
2023-01-30T09:22:22.508Z,99098.53
2023-01-30T09:24:50.421Z,99095.16
2023-01-30T09:27:18.074Z,99090.78
2023-01-30T09:29:46.091Z,99085.50
2023-01-30T09:32:13.950Z,99077.97
2023-01-30T09:34:41.875Z,99082.25
2023-01-30T09:37:10.679Z,99069.28
2023-01-30T09:39:38.623Z,99072.00
2023-01-30T09:42:29.630Z,99063.38
2023-01-30T09:45:28.109Z,99066.66
2023-01-30T09:48:13.599Z,99051.06
2023-01-30T09:50:56.094Z,99051.84
2023-01-30T09:53:39.114Z,99053.50
2023-01-30T09:56:07.365Z,99046.81
2023-01-30T09:58:57.617Z,99039.06
2023-01-30T10:01:51.616Z,99031.34
2023-01-30T10:04:29.727Z,99022.50
2023-01-30T10:07:16.881Z,99023.28
2023-01-30T10:10:22.997Z,99011.38
2023-01-30T10:13:12.405Z,99003.56
2023-01-30T10:15:42.956Z,98992.66
2023-01-30T10:18:34.948Z,98996.16
2023-01-30T10:21:08.398Z,98990.16
2023-01-30T10:24:00.872Z,98992.69
2023-01-30T10:26:31.317Z,98986.69
2023-01-30T10:29:12.516Z,98977.31
2023-01-30T10:32:15.577Z,98985.88
2023-01-30T10:34:49.038Z,98970.19
2023-01-30T10:37:22.818Z,98966.81
2023-01-30T10:39:55.598Z,98973.66
2023-01-30T10:42:41.964Z,98964.25
2023-01-30T10:45:26.668Z,98967.72
2023-01-30T10:47:57.071Z,98950.53
2023-01-30T10:50:58.456Z,98950.59
2023-01-30T10:53:32.210Z,98933.41
2023-01-30T10:56:19.385Z,98947.88
2023-01-30T10:59:12.929Z,98946.22
2023-01-30T11:01:45.065Z,98941.03
2023-01-30T11:04:47.776Z,98940.63
2023-01-30T11:07:16.349Z,98937.44
2023-01-30T11:09:48.554Z,98937.28
2023-01-30T11:12:17.050Z,98933.91
2023-01-30T11:14:53.501Z,98925.09
2023-01-30T11:17:29.911Z,98927.91
2023-01-30T11:20:02.652Z,98915.13
2023-01-30T11:22:34.349Z,98909.38
2023-01-30T11:25:11.653Z,98900.72
2023-01-30T11:27:43.496Z,98905.63
2023-01-30T11:30:20.337Z,98896.97
2023-01-30T11:32:50.354Z,98898.75
2023-01-30T11:35:25.812Z,98892.50
2023-01-30T11:37:53.916Z,98896.00
2023-01-30T11:40:28.259Z,98885.53
2023-01-30T11:43:11.846Z,98878.72
2023-01-30T11:45:45.797Z,98892.16
2023-01-30T11:48:32.981Z,98859.59
2023-01-30T11:51:09.496Z,98883.34
2023-01-30T11:53:42.662Z,98878.91
2023-01-30T11:56:20.808Z,98877.94
2023-01-30T11:58:58.221Z,98878.53
2023-01-30T12:01:38.365Z,98879.69
2023-01-30T12:04:11.093Z,98876.31
2023-01-30T12:06:42.363Z,98863.56
2023-01-30T12:09:34.627Z,98860.19
2023-01-30T12:12:02.674Z,98853.97
2023-01-30T12:14:52.607Z,98862.53
2023-01-30T12:17:49.383Z,98868.47
2023-01-30T12:20:46.701Z,98855.69
2023-01-30T12:23:23.886Z,98858.47
2023-01-30T12:25:57.128Z,98862.00
2023-01-30T12:28:53.981Z,98853.16
2023-01-30T12:31:36.785Z,98846.03
2023-01-30T12:34:04.911Z,98845.56
2023-01-30T12:36:45.404Z,98846.22
2023-01-30T12:39:32.007Z,98835.13
2023-01-30T12:42:26.822Z,98845.31
2023-01-30T12:45:21.827Z,98844.50
2023-01-30T12:48:07.807Z,98848.94
2023-01-30T12:50:49.625Z,98842.25
2023-01-30T12:53:23.690Z,98850.41
2023-01-30T12:55:57.239Z,98848.47
2023-01-30T12:58:43.672Z,98847.66
2023-01-30T13:01:25.111Z,98851.25
2023-01-30T13:03:57.711Z,98847.84
2023-01-30T13:06:46.862Z,98850.19
2023-01-30T13:09:38.972Z,98837.22
2023-01-30T13:12:37.569Z,98837.38
2023-01-30T13:15:17.780Z,98833.28
2023-01-30T13:18:20.922Z,98830.66
2023-01-30T13:21:13.982Z,98831.19
2023-01-30T13:24:01.900Z,98835.56
2023-01-30T13:26:36.310Z,98823.66
2023-01-30T13:29:21.208Z,98832.19
2023-01-30T13:31:59.589Z,98810.78
2023-01-30T13:34:44.428Z,98815.88
2023-01-30T13:37:13.403Z,98823.66
2023-01-30T13:40:02.384Z,98825.22
2023-01-30T13:42:43.904Z,98814.44
2023-01-30T13:45:36.715Z,98825.16
2023-01-30T13:48:19.442Z,98826.94
2023-01-30T13:50:47.150Z,98813.38
2023-01-30T13:53:23.588Z,98833.03
2023-01-30T13:56:27.115Z,98824.28
2023-01-30T13:59:10.086Z,98815.81
2023-01-30T14:02:03.844Z,98807.97
2023-01-30T14:04:41.324Z,98808.94
2023-01-30T14:07:21.881Z,98819.94
2023-01-30T14:10:09.958Z,98825.28
2023-01-30T14:12:47.893Z,98831.00
2023-01-30T14:15:17.385Z,98829.31
2023-01-30T14:17:57.715Z,98841.16
2023-01-30T14:20:28.475Z,98842.97
2023-01-30T14:23:20.712Z,98853.53
2023-01-30T14:25:56.479Z,98853.31
2023-01-30T14:28:24.230Z,98850.66
2023-01-30T14:30:54.932Z,98853.31
2023-01-30T14:33:22.520Z,98853.81
2023-01-30T14:36:13.469Z,98854.53
2023-01-30T14:38:44.464Z,98860.72
2023-01-30T14:41:16.747Z,98863.56
2023-01-30T14:43:44.480Z,98865.19
2023-01-30T14:46:18.693Z,98863.41
2023-01-30T14:48:56.902Z,98864.91
2023-01-30T14:51:43.512Z,98863.00
2023-01-30T14:54:16.979Z,98862.53
2023-01-30T14:56:51.093Z,98875.22
2023-01-30T14:59:26.881Z,98865.63
2023-01-30T15:02:15.106Z,98873.66
2023-01-30T15:05:20.385Z,98861.44
2023-01-30T15:08:08.954Z,98865.56
2023-01-30T15:10:54.589Z,98861.47
2023-01-30T15:13:51.893Z,98863.09
2023-01-30T15:16:43.529Z,98865.84
2023-01-30T15:19:35.045Z,98867.38
2023-01-30T15:22:23.028Z,98861.44
2023-01-30T15:25:13.143Z,98863.22
2023-01-30T15:28:00.136Z,98863.22
2023-01-30T15:30:59.448Z,98864.91
2023-01-30T15:33:31.286Z,98870.81
2023-01-30T15:36:00.548Z,98867.25
2023-01-30T15:38:35.072Z,98870.91
2023-01-30T15:41:07.270Z,98885.56
2023-01-30T15:43:42.992Z,98887.19
2023-01-30T15:46:38.978Z,98887.19
2023-01-30T15:49:34.639Z,98897.50
2023-01-30T15:52:11.222Z,98899.47
2023-01-30T15:54:38.897Z,98893.63
2023-01-30T15:57:07.222Z,98890.94
2023-01-30T15:59:40.004Z,98881.59
2023-01-30T16:02:28.147Z,98890.09
2023-01-30T16:05:28.885Z,98897.94
2023-01-30T16:07:58.982Z,98901.63
2023-01-30T16:10:29.562Z,98906.66
2023-01-30T16:13:02.439Z,98907.31
2023-01-30T16:15:48.516Z,98902.97
2023-01-30T16:18:25.614Z,98903.78
2023-01-30T16:21:18.648Z,98900.63
2023-01-30T16:23:57.498Z,98909.19
2023-01-30T16:26:25.334Z,98898.69
2023-01-30T16:29:02.472Z,98890.50
2023-01-30T16:31:35.353Z,98888.91
2023-01-30T16:34:03.897Z,98889.56
2023-01-30T16:36:38.191Z,98888.81
2023-01-30T16:39:33.253Z,98887.94
2023-01-30T16:42:02.396Z,98891.41
2023-01-30T16:44:32.565Z,98898.31
2023-01-30T16:47:11.186Z,98915.66
2023-01-30T16:49:48.283Z,98923.19
2023-01-30T16:52:19.114Z,98912.06
2023-01-30T16:54:59.926Z,98918.84
2023-01-30T16:57:36.666Z,98912.63
2023-01-30T17:00:29.792Z,98911.00
2023-01-30T17:03:07.500Z,98918.72
2023-01-30T17:05:46.239Z,98917.22
2023-01-30T17:08:54.262Z,98911.03
2023-01-30T17:11:39.241Z,98906.88
2023-01-30T17:14:30.642Z,98904.13
2023-01-30T17:17:03.141Z,98902.44
2023-01-30T17:19:30.917Z,98899.91
2023-01-30T17:22:01.596Z,98904.00
2023-01-30T17:24:30.014Z,98901.38
2023-01-30T17:27:02.634Z,98916.13
2023-01-30T17:29:42.343Z,98912.69
2023-01-30T17:32:15.129Z,98917.00
2023-01-30T17:34:43.056Z,98915.31
2023-01-30T17:37:20.346Z,98920.03
2023-01-30T17:39:48.760Z,98926.88
2023-01-30T17:42:18.748Z,98932.22
2023-01-30T17:44:46.584Z,98928.34
2023-01-30T17:47:14.608Z,98919.94
2023-01-30T17:49:42.454Z,98924.25
2023-01-30T17:52:13.012Z,98930.25
2023-01-30T17:54:40.850Z,98926.72
2023-01-30T17:57:11.842Z,98923.06
2023-01-30T17:59:39.537Z,98918.75
2023-01-30T18:02:09.719Z,98929.81
2023-01-30T18:04:39.940Z,98931.44
2023-01-30T18:07:12.462Z,98926.31
2023-01-30T18:09:40.261Z,98930.41
2023-01-30T18:12:08.295Z,98915.63
2023-01-30T18:14:35.946Z,98928.84
2023-01-30T18:17:04.177Z,98938.38
2023-01-30T18:19:31.965Z,98936.69
2023-01-30T18:22:00.199Z,98922.66
2023-01-30T18:24:27.935Z,98925.28
2023-01-30T18:26:56.069Z,98933.06
2023-01-30T18:29:23.984Z,98942.31
2023-01-30T18:31:52.024Z,98941.63
2023-01-30T18:34:19.814Z,98946.63
2023-01-30T18:36:48.459Z,98941.53
2023-01-30T18:39:16.204Z,98944.31
2023-01-30T18:41:44.160Z,98931.84
2023-01-30T18:44:11.863Z,98950.41
2023-01-30T18:46:40.024Z,98945.94
2023-01-30T18:49:08.391Z,98942.44
2023-01-30T18:51:36.405Z,98939.94
2023-01-30T18:54:04.141Z,98941.78
2023-01-30T18:56:34.122Z,98937.81
2023-01-30T18:59:04.349Z,98933.56
2023-01-30T19:01:38.738Z,98927.66
2023-01-30T19:04:09.191Z,98931.84
2023-01-30T19:06:40.782Z,98926.09
2023-01-30T19:09:11.850Z,98923.56
2023-01-30T19:11:58.454Z,98941.59
2023-01-30T19:14:26.393Z,98935.53
2023-01-30T19:16:54.627Z,98931.13
2023-01-30T19:19:22.476Z,98938.22
2023-01-30T19:21:52.329Z,98935.59
2023-01-30T19:24:20.042Z,98937.81
2023-01-30T19:26:48.933Z,98943.94
2023-01-30T19:29:18.256Z,98938.00
2023-01-30T19:31:50.201Z,98937.34
2023-01-30T19:34:18.156Z,98934.84
2023-01-30T19:36:46.111Z,98940.06
2023-01-30T19:39:13.814Z,98944.44
2023-01-30T19:41:41.731Z,98937.81
2023-01-30T19:44:11.731Z,98946.09
2023-01-30T19:46:40.801Z,98940.06
2023-01-30T19:49:10.396Z,98936.19
2023-01-30T19:51:38.348Z,98941.28
2023-01-30T19:54:09.608Z,98950.06
2023-01-30T19:56:39.333Z,98948.72
2023-01-30T19:59:07.896Z,98950.22
2023-01-30T20:01:39.779Z,98936.88
2023-01-30T20:04:07.856Z,98950.25
2023-01-30T20:06:37.564Z,98941.19
2023-01-30T20:09:07.964Z,98946.22
2023-01-30T20:11:38.350Z,98945.38
2023-01-30T20:14:07.207Z,98953.94
2023-01-30T20:16:36.300Z,98951.31
2023-01-30T20:19:07.751Z,98944.56
2023-01-30T20:21:36.349Z,98944.53
2023-01-30T20:24:04.572Z,98949.75
2023-01-30T20:26:35.452Z,98958.25
2023-01-30T20:29:04.357Z,98949.44
2023-01-30T20:31:33.646Z,98949.22
2023-01-30T20:34:06.056Z,98952.03
2023-01-30T20:36:34.091Z,98953.81
2023-01-30T20:39:04.098Z,98958.09
2023-01-30T20:41:35.061Z,98971.09
2023-01-30T20:44:03.627Z,98975.31
2023-01-30T20:46:43.620Z,98983.22
2023-01-30T20:49:17.820Z,98998.41
2023-01-30T20:51:48.079Z,99001.22
2023-01-30T20:54:16.556Z,99003.09
2023-01-30T20:56:50.834Z,99004.72
2023-01-30T20:59:24.306Z,98990.91
2023-01-30T21:01:53.305Z,99002.09
2023-01-30T21:04:22.535Z,99006.41
2023-01-30T21:06:50.859Z,98996.44
2023-01-30T21:09:22.330Z,99004.41
2023-01-30T21:11:52.638Z,99012.75
2023-01-30T21:14:20.817Z,99012.22
2023-01-30T21:16:49.243Z,99027.72
2023-01-30T21:19:18.188Z,99015.31
2023-01-30T21:21:53.464Z,99029.13
2023-01-30T21:24:28.796Z,99031.41
2023-01-30T21:26:57.827Z,99029.03
2023-01-30T21:29:27.851Z,99039.31
2023-01-30T21:31:57.465Z,99026.28
2023-01-30T21:34:25.746Z,99036.03
2023-01-30T21:37:12.403Z,99037.50
2023-01-30T21:39:59.097Z,99041.19
2023-01-30T21:42:45.644Z,99041.91
2023-01-30T21:45:13.638Z,99053.16
2023-01-30T21:47:41.746Z,99033.22
2023-01-30T21:50:10.093Z,99045.28
2023-01-30T21:52:38.165Z,99035.72
2023-01-30T21:55:06.144Z,99046.22
2023-01-30T21:57:34.336Z,99046.53
2023-01-30T22:00:02.208Z,99054.00
2023-01-30T22:02:33.185Z,99042.13
2023-01-30T22:05:00.967Z,99054.13
2023-01-30T22:07:29.006Z,99052.41
2023-01-30T22:09:57.184Z,99051.72
2023-01-30T22:12:26.541Z,99054.84
2023-01-30T22:14:54.891Z,99052.28
2023-01-30T22:17:22.971Z,99050.47
2023-01-30T22:19:50.668Z,99055.94
2023-01-30T22:22:18.650Z,99060.22
2023-01-30T22:24:46.287Z,99067.34
2023-01-30T22:27:16.338Z,99067.72
2023-01-30T22:29:44.090Z,99065.66
2023-01-30T22:32:12.130Z,99075.59
2023-01-30T22:34:39.903Z,99084.78
2023-01-30T22:37:07.827Z,99080.59
2023-01-30T22:39:35.910Z,99083.28
2023-01-30T22:42:04.042Z,99083.00
2023-01-30T22:44:31.651Z,99088.44
2023-01-30T22:47:00.118Z,99093.53
2023-01-30T22:49:27.741Z,99096.53
2023-01-30T22:51:55.632Z,99097.22
2023-01-30T22:54:25.036Z,99091.06
2023-01-30T22:56:53.337Z,99095.03
2023-01-30T22:59:21.827Z,99094.19
2023-01-30T23:01:51.018Z,99103.47
2023-01-30T23:04:21.644Z,99092.75
2023-01-30T23:06:53.888Z,99089.78
2023-01-30T23:09:23.449Z,99094.84
2023-01-30T23:12:13.422Z,99101.91
2023-01-30T23:14:42.905Z,99098.50
2023-01-30T23:17:30.155Z,99098.31
2023-01-30T23:19:58.522Z,99101.50
2023-01-30T23:22:26.476Z,99101.47
2023-01-30T23:24:54.055Z,99104.72
2023-01-30T23:27:22.221Z,99097.34
2023-01-30T23:29:49.982Z,99097.78
2023-01-30T23:32:21.008Z,99107.34
2023-01-30T23:34:48.989Z,99101.16
2023-01-30T23:37:17.589Z,99100.56
2023-01-30T23:39:45.935Z,99108.13
2023-01-30T23:42:13.854Z,99110.28
2023-01-30T23:44:41.527Z,99107.34
2023-01-30T23:47:09.417Z,99105.72
2023-01-30T23:49:37.679Z,99111.50
2023-01-30T23:52:06.084Z,99105.34
2023-01-30T23:54:33.776Z,99102.88
2023-01-30T23:57:01.714Z,99097.84
2023-01-30T23:59:29.470Z,99094.66
